sensor_id;sensor_type;location;lat;lon;timestamp;P1;durP1;ratioP1;P2;durP2;ratioP2
4630;SDS011;2328;48.170;11.602;2022-11-02T00:01:33;4.80;;;1.20;;
4630;SDS011;2328;48.170;11.602;2022-11-02T00:04:10;2.10;;;1.40;;
4630;SDS011;2328;48.170;11.602;2022-11-02T00:06:40;3.80;;;1.53;;
4630;SDS011;2328;48.170;11.602;2022-11-02T00:09:17;1.93;;;1.20;;
4630;SDS011;2328;48.170;11.602;2022-11-02T00:11:50;2.00;;;1.37;;
4630;SDS011;2328;48.170;11.602;2022-11-02T00:14:19;1.93;;;1.30;;
4630;SDS011;2328;48.170;11.602;2022-11-02T00:16:53;2.53;;;1.20;;
4630;SDS011;2328;48.170;11.602;2022-11-02T00:19:24;2.20;;;1.30;;
4630;SDS011;2328;48.170;11.602;2022-11-02T00:22:02;0.93;;;0.93;;
4630;SDS011;2328;48.170;11.602;2022-11-02T00:24:31;2.13;;;1.27;;
4630;SDS011;2328;48.170;11.602;2022-11-02T00:27:06;2.70;;;1.43;;
4630;SDS011;2328;48.170;11.602;2022-11-02T00:29:37;1.70;;;1.40;;
4630;SDS011;2328;48.170;11.602;2022-11-02T00:32:06;4.60;;;1.87;;
4630;SDS011;2328;48.170;11.602;2022-11-02T00:34:34;2.10;;;1.10;;
4630;SDS011;2328;48.170;11.602;2022-11-02T00:39:50;3.77;;;1.20;;
4630;SDS011;2328;48.170;11.602;2022-11-02T00:42:19;2.30;;;1.20;;
4630;SDS011;2328;48.170;11.602;2022-11-02T00:44:51;1.37;;;0.90;;
4630;SDS011;2328;48.170;11.602;2022-11-02T00:47:22;2.20;;;1.10;;
4630;SDS011;2328;48.170;11.602;2022-11-02T00:49:50;1.67;;;1.30;;
4630;SDS011;2328;48.170;11.602;2022-11-02T00:52:23;2.57;;;1.37;;
4630;SDS011;2328;48.170;11.602;2022-11-02T00:54:51;3.60;;;1.37;;
4630;SDS011;2328;48.170;11.602;2022-11-02T00:57:19;1.20;;;1.07;;
4630;SDS011;2328;48.170;11.602;2022-11-02T00:59:47;2.47;;;1.43;;
4630;SDS011;2328;48.170;11.602;2022-11-02T01:02:17;1.53;;;1.27;;
4630;SDS011;2328;48.170;11.602;2022-11-02T01:04:47;1.63;;;1.53;;
4630;SDS011;2328;48.170;11.602;2022-11-02T01:07:16;3.67;;;1.50;;
4630;SDS011;2328;48.170;11.602;2022-11-02T01:09:49;2.97;;;1.13;;
4630;SDS011;2328;48.170;11.602;2022-11-02T01:12:18;2.57;;;1.30;;
4630;SDS011;2328;48.170;11.602;2022-11-02T01:14:47;4.13;;;1.37;;
4630;SDS011;2328;48.170;11.602;2022-11-02T01:17:16;3.83;;;1.60;;
4630;SDS011;2328;48.170;11.602;2022-11-02T01:19:46;2.53;;;1.90;;
4630;SDS011;2328;48.170;11.602;2022-11-02T01:22:18;4.00;;;1.70;;
4630;SDS011;2328;48.170;11.602;2022-11-02T01:24:48;5.83;;;2.30;;
4630;SDS011;2328;48.170;11.602;2022-11-02T01:27:16;2.57;;;1.63;;
4630;SDS011;2328;48.170;11.602;2022-11-02T01:29:44;4.00;;;1.60;;
4630;SDS011;2328;48.170;11.602;2022-11-02T01:32:13;6.00;;;2.30;;
4630;SDS011;2328;48.170;11.602;2022-11-02T01:34:41;12.57;;;2.57;;
4630;SDS011;2328;48.170;11.602;2022-11-02T01:37:14;6.73;;;2.20;;
4630;SDS011;2328;48.170;11.602;2022-11-02T01:39:44;1.63;;;1.50;;
4630;SDS011;2328;48.170;11.602;2022-11-02T01:42:18;1.67;;;1.33;;
4630;SDS011;2328;48.170;11.602;2022-11-02T01:44:48;6.70;;;2.40;;
4630;SDS011;2328;48.170;11.602;2022-11-02T01:47:21;4.37;;;2.20;;
4630;SDS011;2328;48.170;11.602;2022-11-02T01:49:54;5.37;;;2.60;;
4630;SDS011;2328;48.170;11.602;2022-11-02T01:52:30;3.50;;;2.30;;
4630;SDS011;2328;48.170;11.602;2022-11-02T01:55:03;3.40;;;2.07;;
4630;SDS011;2328;48.170;11.602;2022-11-02T01:57:39;2.00;;;1.80;;
4630;SDS011;2328;48.170;11.602;2022-11-02T02:00:13;4.10;;;1.93;;
4630;SDS011;2328;48.170;11.602;2022-11-02T02:02:44;7.40;;;3.07;;
4630;SDS011;2328;48.170;11.602;2022-11-02T02:05:21;2.53;;;1.83;;
4630;SDS011;2328;48.170;11.602;2022-11-02T02:07:52;6.10;;;2.73;;
4630;SDS011;2328;48.170;11.602;2022-11-02T02:10:23;3.30;;;1.80;;
4630;SDS011;2328;48.170;11.602;2022-11-02T02:12:54;2.70;;;1.70;;
4630;SDS011;2328;48.170;11.602;2022-11-02T02:15:27;4.30;;;1.93;;
4630;SDS011;2328;48.170;11.602;2022-11-02T02:18:04;3.90;;;1.80;;
4630;SDS011;2328;48.170;11.602;2022-11-02T02:20:41;7.03;;;2.10;;
4630;SDS011;2328;48.170;11.602;2022-11-02T02:23:32;3.43;;;2.00;;
4630;SDS011;2328;48.170;11.602;2022-11-02T02:26:36;2.90;;;1.80;;
4630;SDS011;2328;48.170;11.602;2022-11-02T02:29:18;3.50;;;2.20;;
4630;SDS011;2328;48.170;11.602;2022-11-02T02:31:51;2.43;;;1.73;;
4630;SDS011;2328;48.170;11.602;2022-11-02T02:34:25;5.37;;;2.37;;
4630;SDS011;2328;48.170;11.602;2022-11-02T02:37:02;3.47;;;1.70;;
4630;SDS011;2328;48.170;11.602;2022-11-02T02:39:37;4.03;;;1.60;;
4630;SDS011;2328;48.170;11.602;2022-11-02T02:42:11;5.07;;;2.33;;
4630;SDS011;2328;48.170;11.602;2022-11-02T02:44:50;5.63;;;1.97;;
4630;SDS011;2328;48.170;11.602;2022-11-02T02:47:31;4.40;;;1.50;;
4630;SDS011;2328;48.170;11.602;2022-11-02T02:50:03;2.90;;;1.57;;
4630;SDS011;2328;48.170;11.602;2022-11-02T02:52:40;5.73;;;3.63;;
4630;SDS011;2328;48.170;11.602;2022-11-02T02:55:13;2.63;;;1.70;;
4630;SDS011;2328;48.170;11.602;2022-11-02T02:57:44;1.83;;;1.40;;
4630;SDS011;2328;48.170;11.602;2022-11-02T03:00:17;3.37;;;1.77;;
4630;SDS011;2328;48.170;11.602;2022-11-02T03:02:46;1.47;;;1.37;;
4630;SDS011;2328;48.170;11.602;2022-11-02T03:05:28;3.00;;;1.80;;
4630;SDS011;2328;48.170;11.602;2022-11-02T03:08:00;1.60;;;0.97;;
4630;SDS011;2328;48.170;11.602;2022-11-02T03:10:33;3.20;;;1.73;;
4630;SDS011;2328;48.170;11.602;2022-11-02T03:13:21;3.50;;;1.80;;
4630;SDS011;2328;48.170;11.602;2022-11-02T03:16:04;1.53;;;1.30;;
4630;SDS011;2328;48.170;11.602;2022-11-02T03:18:40;6.47;;;1.80;;
4630;SDS011;2328;48.170;11.602;2022-11-02T03:21:18;3.30;;;1.43;;
4630;SDS011;2328;48.170;11.602;2022-11-02T03:23:57;5.90;;;1.30;;
4630;SDS011;2328;48.170;11.602;2022-11-02T03:26:32;4.40;;;1.43;;
4630;SDS011;2328;48.170;11.602;2022-11-02T03:29:09;3.73;;;1.07;;
4630;SDS011;2328;48.170;11.602;2022-11-02T03:31:50;1.37;;;1.20;;
4630;SDS011;2328;48.170;11.602;2022-11-02T03:34:23;1.60;;;1.30;;
4630;SDS011;2328;48.170;11.602;2022-11-02T03:36:57;1.23;;;1.00;;
4630;SDS011;2328;48.170;11.602;2022-11-02T03:39:30;1.70;;;1.60;;
4630;SDS011;2328;48.170;11.602;2022-11-02T03:42:03;3.20;;;1.57;;
4630;SDS011;2328;48.170;11.602;2022-11-02T03:44:34;7.73;;;1.43;;
4630;SDS011;2328;48.170;11.602;2022-11-02T03:47:10;2.53;;;1.20;;
4630;SDS011;2328;48.170;11.602;2022-11-02T03:49:41;2.90;;;1.50;;
4630;SDS011;2328;48.170;11.602;2022-11-02T03:52:11;5.87;;;1.13;;
4630;SDS011;2328;48.170;11.602;2022-11-02T03:54:49;5.10;;;1.33;;
4630;SDS011;2328;48.170;11.602;2022-11-02T03:57:25;1.30;;;1.20;;
4630;SDS011;2328;48.170;11.602;2022-11-02T04:00:04;4.30;;;1.30;;
4630;SDS011;2328;48.170;11.602;2022-11-02T04:02:38;2.90;;;1.20;;
4630;SDS011;2328;48.170;11.602;2022-11-02T04:05:10;4.73;;;1.40;;
4630;SDS011;2328;48.170;11.602;2022-11-02T04:07:39;1.70;;;1.30;;
4630;SDS011;2328;48.170;11.602;2022-11-02T04:10:28;1.77;;;1.07;;
4630;SDS011;2328;48.170;11.602;2022-11-02T04:12:57;5.90;;;1.33;;
4630;SDS011;2328;48.170;11.602;2022-11-02T04:15:40;1.10;;;1.00;;
4630;SDS011;2328;48.170;11.602;2022-11-02T04:18:10;2.70;;;0.97;;
4630;SDS011;2328;48.170;11.602;2022-11-02T04:20:56;9.30;;;1.43;;
4630;SDS011;2328;48.170;11.602;2022-11-02T04:23:24;1.93;;;1.10;;
4630;SDS011;2328;48.170;11.602;2022-11-02T04:26:10;1.20;;;1.00;;
4630;SDS011;2328;48.170;11.602;2022-11-02T04:28:39;1.47;;;1.33;;
4630;SDS011;2328;48.170;11.602;2022-11-02T04:31:07;2.13;;;1.17;;
4630;SDS011;2328;48.170;11.602;2022-11-02T04:33:40;4.20;;;1.40;;
4630;SDS011;2328;48.170;11.602;2022-11-02T04:36:07;6.00;;;1.40;;
4630;SDS011;2328;48.170;11.602;2022-11-02T04:38:36;8.73;;;1.63;;
4630;SDS011;2328;48.170;11.602;2022-11-02T04:41:06;1.97;;;1.00;;
4630;SDS011;2328;48.170;11.602;2022-11-02T04:43:53;2.60;;;1.77;;
4630;SDS011;2328;48.170;11.602;2022-11-02T04:46:23;2.67;;;1.50;;
4630;SDS011;2328;48.170;11.602;2022-11-02T04:48:56;3.00;;;1.57;;
4630;SDS011;2328;48.170;11.602;2022-11-02T04:51:25;1.40;;;1.10;;
4630;SDS011;2328;48.170;11.602;2022-11-02T04:53:55;1.20;;;0.93;;
4630;SDS011;2328;48.170;11.602;2022-11-02T04:56:26;5.13;;;1.70;;
4630;SDS011;2328;48.170;11.602;2022-11-02T04:58:56;1.47;;;1.30;;
4630;SDS011;2328;48.170;11.602;2022-11-02T05:01:27;2.13;;;0.90;;
4630;SDS011;2328;48.170;11.602;2022-11-02T05:03:58;1.20;;;1.10;;
4630;SDS011;2328;48.170;11.602;2022-11-02T05:06:27;1.70;;;1.57;;
4630;SDS011;2328;48.170;11.602;2022-11-02T05:08:55;1.70;;;0.93;;
4630;SDS011;2328;48.170;11.602;2022-11-02T05:11:23;1.23;;;1.10;;
4630;SDS011;2328;48.170;11.602;2022-11-02T05:13:51;4.03;;;1.10;;
4630;SDS011;2328;48.170;11.602;2022-11-02T05:16:20;7.43;;;1.67;;
4630;SDS011;2328;48.170;11.602;2022-11-02T05:18:48;4.30;;;1.00;;
4630;SDS011;2328;48.170;11.602;2022-11-02T05:21:19;5.43;;;1.53;;
4630;SDS011;2328;48.170;11.602;2022-11-02T05:23:47;1.43;;;1.13;;
4630;SDS011;2328;48.170;11.602;2022-11-02T05:26:16;3.67;;;1.30;;
4630;SDS011;2328;48.170;11.602;2022-11-02T05:28:46;1.03;;;0.80;;
4630;SDS011;2328;48.170;11.602;2022-11-02T05:31:16;1.70;;;1.20;;
4630;SDS011;2328;48.170;11.602;2022-11-02T05:33:45;1.50;;;1.40;;
4630;SDS011;2328;48.170;11.602;2022-11-02T05:36:13;7.03;;;1.20;;
4630;SDS011;2328;48.170;11.602;2022-11-02T05:38:43;1.43;;;0.90;;
4630;SDS011;2328;48.170;11.602;2022-11-02T05:41:11;2.30;;;1.43;;
4630;SDS011;2328;48.170;11.602;2022-11-02T05:43:40;2.40;;;1.30;;
4630;SDS011;2328;48.170;11.602;2022-11-02T05:46:11;3.20;;;1.50;;
4630;SDS011;2328;48.170;11.602;2022-11-02T05:48:40;2.00;;;1.60;;
4630;SDS011;2328;48.170;11.602;2022-11-02T05:51:09;1.53;;;1.10;;
4630;SDS011;2328;48.170;11.602;2022-11-02T05:53:38;2.80;;;1.20;;
4630;SDS011;2328;48.170;11.602;2022-11-02T05:56:11;1.90;;;1.10;;
4630;SDS011;2328;48.170;11.602;2022-11-02T05:58:41;2.30;;;1.27;;
4630;SDS011;2328;48.170;11.602;2022-11-02T06:01:09;2.07;;;1.60;;
4630;SDS011;2328;48.170;11.602;2022-11-02T06:03:39;1.63;;;1.20;;
4630;SDS011;2328;48.170;11.602;2022-11-02T06:06:08;1.50;;;0.90;;
4630;SDS011;2328;48.170;11.602;2022-11-02T06:08:37;3.83;;;1.60;;
4630;SDS011;2328;48.170;11.602;2022-11-02T06:11:07;6.07;;;2.80;;
4630;SDS011;2328;48.170;11.602;2022-11-02T06:13:38;2.60;;;1.50;;
4630;SDS011;2328;48.170;11.602;2022-11-02T06:16:09;2.10;;;1.30;;
4630;SDS011;2328;48.170;11.602;2022-11-02T06:18:48;1.23;;;1.10;;
4630;SDS011;2328;48.170;11.602;2022-11-02T06:21:16;2.67;;;0.87;;
4630;SDS011;2328;48.170;11.602;2022-11-02T06:23:45;4.23;;;1.23;;
4630;SDS011;2328;48.170;11.602;2022-11-02T06:26:14;1.80;;;1.20;;
4630;SDS011;2328;48.170;11.602;2022-11-02T06:31:33;1.23;;;1.13;;
4630;SDS011;2328;48.170;11.602;2022-11-02T06:34:04;6.67;;;0.80;;
4630;SDS011;2328;48.170;11.602;2022-11-02T06:36:33;3.93;;;1.70;;
4630;SDS011;2328;48.170;11.602;2022-11-02T06:39:01;1.17;;;1.07;;
4630;SDS011;2328;48.170;11.602;2022-11-02T06:41:30;3.60;;;1.40;;
4630;SDS011;2328;48.170;11.602;2022-11-02T06:44:12;3.90;;;1.10;;
4630;SDS011;2328;48.170;11.602;2022-11-02T06:46:43;1.20;;;1.10;;
4630;SDS011;2328;48.170;11.602;2022-11-02T06:49:11;5.30;;;1.13;;
4630;SDS011;2328;48.170;11.602;2022-11-02T06:51:40;0.90;;;0.80;;
4630;SDS011;2328;48.170;11.602;2022-11-02T06:54:26;2.40;;;1.30;;
4630;SDS011;2328;48.170;11.602;2022-11-02T06:56:55;3.53;;;1.53;;
4630;SDS011;2328;48.170;11.602;2022-11-02T06:59:25;6.53;;;1.37;;
4630;SDS011;2328;48.170;11.602;2022-11-02T07:01:56;1.67;;;1.20;;
4630;SDS011;2328;48.170;11.602;2022-11-02T07:04:25;4.77;;;0.90;;
4630;SDS011;2328;48.170;11.602;2022-11-02T07:06:54;4.00;;;1.27;;
4630;SDS011;2328;48.170;11.602;2022-11-02T07:09:24;1.40;;;1.30;;
4630;SDS011;2328;48.170;11.602;2022-11-02T07:11:52;2.70;;;1.40;;
4630;SDS011;2328;48.170;11.602;2022-11-02T07:14:22;4.60;;;1.70;;
4630;SDS011;2328;48.170;11.602;2022-11-02T07:16:52;2.67;;;1.27;;
4630;SDS011;2328;48.170;11.602;2022-11-02T07:19:21;1.57;;;1.03;;
4630;SDS011;2328;48.170;11.602;2022-11-02T07:21:53;1.50;;;1.30;;
4630;SDS011;2328;48.170;11.602;2022-11-02T07:24:22;3.10;;;1.43;;
4630;SDS011;2328;48.170;11.602;2022-11-02T07:26:50;2.13;;;1.40;;
4630;SDS011;2328;48.170;11.602;2022-11-02T07:29:19;2.33;;;1.20;;
4630;SDS011;2328;48.170;11.602;2022-11-02T07:31:47;0.80;;;0.80;;
4630;SDS011;2328;48.170;11.602;2022-11-02T07:34:21;1.63;;;1.27;;
4630;SDS011;2328;48.170;11.602;2022-11-02T07:36:50;3.97;;;1.20;;
4630;SDS011;2328;48.170;11.602;2022-11-02T07:39:21;2.70;;;1.03;;
4630;SDS011;2328;48.170;11.602;2022-11-02T07:41:50;1.40;;;1.03;;
4630;SDS011;2328;48.170;11.602;2022-11-02T07:44:18;3.73;;;1.47;;
4630;SDS011;2328;48.170;11.602;2022-11-02T07:46:47;3.10;;;1.27;;
4630;SDS011;2328;48.170;11.602;2022-11-02T07:49:18;1.93;;;1.50;;
4630;SDS011;2328;48.170;11.602;2022-11-02T07:51:47;2.37;;;1.37;;
4630;SDS011;2328;48.170;11.602;2022-11-02T07:54:15;2.00;;;1.70;;
4630;SDS011;2328;48.170;11.602;2022-11-02T07:56:44;6.13;;;1.00;;
4630;SDS011;2328;48.170;11.602;2022-11-02T07:59:13;3.07;;;1.27;;
4630;SDS011;2328;48.170;11.602;2022-11-02T08:01:43;1.10;;;0.80;;
4630;SDS011;2328;48.170;11.602;2022-11-02T08:04:15;5.63;;;1.33;;
4630;SDS011;2328;48.170;11.602;2022-11-02T08:06:50;2.63;;;1.40;;
4630;SDS011;2328;48.170;11.602;2022-11-02T08:09:20;3.03;;;1.30;;
4630;SDS011;2328;48.170;11.602;2022-11-02T08:11:59;1.60;;;1.50;;
4630;SDS011;2328;48.170;11.602;2022-11-02T08:14:43;6.90;;;1.43;;
4630;SDS011;2328;48.170;11.602;2022-11-02T08:17:18;3.33;;;1.20;;
4630;SDS011;2328;48.170;11.602;2022-11-02T08:20:03;2.40;;;1.33;;
4630;SDS011;2328;48.170;11.602;2022-11-02T08:22:37;1.03;;;0.70;;
4630;SDS011;2328;48.170;11.602;2022-11-02T08:25:25;3.70;;;1.00;;
4630;SDS011;2328;48.170;11.602;2022-11-02T08:28:03;4.77;;;1.17;;
4630;SDS011;2328;48.170;11.602;2022-11-02T08:30:40;5.33;;;0.80;;
4630;SDS011;2328;48.170;11.602;2022-11-02T08:33:09;2.23;;;1.10;;
4630;SDS011;2328;48.170;11.602;2022-11-02T08:35:50;1.27;;;1.00;;
4630;SDS011;2328;48.170;11.602;2022-11-02T08:38:20;2.00;;;0.70;;
4630;SDS011;2328;48.170;11.602;2022-11-02T08:40:49;2.53;;;1.10;;
4630;SDS011;2328;48.170;11.602;2022-11-02T08:43:17;3.57;;;0.80;;
4630;SDS011;2328;48.170;11.602;2022-11-02T08:45:49;1.00;;;0.90;;
4630;SDS011;2328;48.170;11.602;2022-11-02T08:48:43;1.70;;;1.30;;
4630;SDS011;2328;48.170;11.602;2022-11-02T08:51:13;9.10;;;1.00;;
4630;SDS011;2328;48.170;11.602;2022-11-02T08:53:43;1.87;;;0.90;;
4630;SDS011;2328;48.170;11.602;2022-11-02T08:56:17;0.90;;;0.90;;
4630;SDS011;2328;48.170;11.602;2022-11-02T08:58:50;3.50;;;0.77;;
4630;SDS011;2328;48.170;11.602;2022-11-02T09:01:21;2.40;;;1.00;;
4630;SDS011;2328;48.170;11.602;2022-11-02T09:03:51;0.80;;;0.60;;
4630;SDS011;2328;48.170;11.602;2022-11-02T09:06:20;3.00;;;0.80;;
4630;SDS011;2328;48.170;11.602;2022-11-02T09:08:48;1.53;;;1.20;;
4630;SDS011;2328;48.170;11.602;2022-11-02T09:11:21;3.17;;;1.03;;
4630;SDS011;2328;48.170;11.602;2022-11-02T09:13:50;3.60;;;0.60;;
4630;SDS011;2328;48.170;11.602;2022-11-02T09:16:22;3.53;;;0.90;;
4630;SDS011;2328;48.170;11.602;2022-11-02T09:18:50;1.17;;;0.60;;
4630;SDS011;2328;48.170;11.602;2022-11-02T09:21:21;1.23;;;0.60;;
4630;SDS011;2328;48.170;11.602;2022-11-02T09:23:49;0.83;;;0.67;;
4630;SDS011;2328;48.170;11.602;2022-11-02T09:26:21;3.63;;;1.03;;
4630;SDS011;2328;48.170;11.602;2022-11-02T09:28:50;2.07;;;0.80;;
4630;SDS011;2328;48.170;11.602;2022-11-02T09:31:19;1.10;;;0.70;;
4630;SDS011;2328;48.170;11.602;2022-11-02T09:33:47;3.37;;;0.80;;
4630;SDS011;2328;48.170;11.602;2022-11-02T09:36:15;4.23;;;0.90;;
4630;SDS011;2328;48.170;11.602;2022-11-02T09:38:45;1.60;;;0.87;;
4630;SDS011;2328;48.170;11.602;2022-11-02T09:41:16;2.77;;;0.80;;
4630;SDS011;2328;48.170;11.602;2022-11-02T09:43:52;1.30;;;0.80;;
4630;SDS011;2328;48.170;11.602;2022-11-02T09:46:28;0.83;;;0.73;;
4630;SDS011;2328;48.170;11.602;2022-11-02T09:49:05;1.00;;;0.63;;
4630;SDS011;2328;48.170;11.602;2022-11-02T09:51:39;3.53;;;0.90;;
4630;SDS011;2328;48.170;11.602;2022-11-02T09:54:14;15.23;;;0.80;;
4630;SDS011;2328;48.170;11.602;2022-11-02T09:56:45;0.83;;;0.60;;
4630;SDS011;2328;48.170;11.602;2022-11-02T09:59:15;1.50;;;0.50;;
4630;SDS011;2328;48.170;11.602;2022-11-02T10:01:50;3.13;;;0.70;;
4630;SDS011;2328;48.170;11.602;2022-11-02T10:04:43;1.30;;;0.50;;
4630;SDS011;2328;48.170;11.602;2022-11-02T10:07:25;1.33;;;0.50;;
4630;SDS011;2328;48.170;11.602;2022-11-02T10:10:04;1.53;;;0.57;;
4630;SDS011;2328;48.170;11.602;2022-11-02T10:12:41;0.90;;;0.57;;
4630;SDS011;2328;48.170;11.602;2022-11-02T10:15:20;6.67;;;0.87;;
4630;SDS011;2328;48.170;11.602;2022-11-02T10:17:54;2.50;;;0.60;;
4630;SDS011;2328;48.170;11.602;2022-11-02T10:20:25;5.17;;;0.70;;
4630;SDS011;2328;48.170;11.602;2022-11-02T10:22:57;3.13;;;0.47;;
4630;SDS011;2328;48.170;11.602;2022-11-02T10:25:31;4.00;;;0.47;;
4630;SDS011;2328;48.170;11.602;2022-11-02T10:28:02;2.80;;;0.70;;
4630;SDS011;2328;48.170;11.602;2022-11-02T10:30:36;9.20;;;1.57;;
4630;SDS011;2328;48.170;11.602;2022-11-02T10:33:09;1.10;;;0.70;;
4630;SDS011;2328;48.170;11.602;2022-11-02T18:04:08;12.90;;;4.80;;
4630;SDS011;2328;48.170;11.602;2022-11-02T18:06:46;7.37;;;3.43;;
4630;SDS011;2328;48.170;11.602;2022-11-02T18:13:02;9.97;;;4.60;;
4630;SDS011;2328;48.170;11.602;2022-11-02T18:22:50;3.83;;;2.53;;
4630;SDS011;2328;48.170;11.602;2022-11-02T18:25:59;4.03;;;2.43;;
4630;SDS011;2328;48.170;11.602;2022-11-02T18:29:52;1.70;;;1.60;;
4630;SDS011;2328;48.170;11.602;2022-11-02T18:32:55;5.03;;;2.03;;
4630;SDS011;2328;48.170;11.602;2022-11-02T18:35:46;5.20;;;2.37;;
4630;SDS011;2328;48.170;11.602;2022-11-02T18:45:28;6.50;;;2.93;;
4630;SDS011;2328;48.170;11.602;2022-11-02T18:52:51;5.57;;;3.33;;
4630;SDS011;2328;48.170;11.602;2022-11-02T19:03:30;5.03;;;2.57;;
4630;SDS011;2328;48.170;11.602;2022-11-02T19:06:27;4.27;;;2.50;;
4630;SDS011;2328;48.170;11.602;2022-11-02T19:09:38;5.03;;;2.00;;
4630;SDS011;2328;48.170;11.602;2022-11-02T19:12:50;3.43;;;2.30;;
4630;SDS011;2328;48.170;11.602;2022-11-02T19:15:44;3.67;;;2.17;;
4630;SDS011;2328;48.170;11.602;2022-11-02T19:18:41;2.90;;;2.10;;
4630;SDS011;2328;48.170;11.602;2022-11-02T19:21:25;4.63;;;2.33;;
4630;SDS011;2328;48.170;11.602;2022-11-02T19:23:59;3.20;;;2.33;;
4630;SDS011;2328;48.170;11.602;2022-11-02T19:26:42;7.43;;;2.73;;
4630;SDS011;2328;48.170;11.602;2022-11-02T19:29:11;3.37;;;2.47;;
4630;SDS011;2328;48.170;11.602;2022-11-02T19:31:42;6.97;;;2.73;;
4630;SDS011;2328;48.170;11.602;2022-11-02T19:34:16;5.10;;;2.53;;
4630;SDS011;2328;48.170;11.602;2022-11-02T19:36:48;2.20;;;2.00;;
4630;SDS011;2328;48.170;11.602;2022-11-02T19:39:17;3.40;;;2.20;;
4630;SDS011;2328;48.170;11.602;2022-11-02T19:42:00;5.50;;;2.40;;
4630;SDS011;2328;48.170;11.602;2022-11-02T20:09:31;2.57;;;1.93;;
4630;SDS011;2328;48.170;11.602;2022-11-02T20:12:26;5.07;;;1.80;;
4630;SDS011;2328;48.170;11.602;2022-11-02T20:15:21;2.67;;;1.80;;
4630;SDS011;2328;48.170;11.602;2022-11-02T20:18:21;2.97;;;2.20;;
4630;SDS011;2328;48.170;11.602;2022-11-02T20:21:30;11.60;;;2.70;;
4630;SDS011;2328;48.170;11.602;2022-11-02T20:28:15;2.60;;;1.60;;
4630;SDS011;2328;48.170;11.602;2022-11-02T20:30:46;5.07;;;2.33;;
4630;SDS011;2328;48.170;11.602;2022-11-02T20:33:19;3.00;;;1.00;;
4630;SDS011;2328;48.170;11.602;2022-11-02T20:35:50;3.67;;;1.70;;
4630;SDS011;2328;48.170;11.602;2022-11-02T20:38:42;3.43;;;1.93;;
